Terminal Aerodrome Forecast
Issued by NWS Quad Cities IA IL

Home | Current Version | Previous Version | Text Only | Print | Product List | Glossary On
Versions: 1 2 3 4 5 6 7 8 9 10 11 12 13 14 15 16 17 18 19 20 21 22 23
000
FTUS43 KDVN 171400 AAA
TAFDBQ
TAF AMD
KDBQ 171427Z 1714/1812 07007KT 2SM BR OVC004
      TEMPO 1714/1715 1SM BR BKN002
     FM171600 08006KT 5SM BR SCT006 BKN015
     FM171800 10007KT P6SM SCT030 SCT250
     FM180600 10003KT 4SM BR SCT080
     FM180900 10003KT 1SM BR SCT009=

USA.gov is the U.S. government's official web portal to all federal, state and local government web resources and services.